createdAt,value
2022-10-26T00:01:17.056Z,13.29
2022-10-26T00:06:21.590Z,13.39
2022-10-26T00:11:23.942Z,13.28
2022-10-26T00:16:27.610Z,13.26
2022-10-26T00:21:29.133Z,13.27
2022-10-26T00:26:30.652Z,13.28
2022-10-26T00:31:32.502Z,13.35
2022-10-26T00:36:34.009Z,13.40
2022-10-26T00:41:35.499Z,13.33
2022-10-26T00:46:38.504Z,13.32
2022-10-26T00:51:48.488Z,13.23
2022-10-26T00:56:52.182Z,13.36
2022-10-26T01:01:53.763Z,13.44
2022-10-26T01:06:55.936Z,13.58
2022-10-26T01:11:57.425Z,13.58
2022-10-26T01:17:10.945Z,13.55
2022-10-26T01:22:20.433Z,13.47
2022-10-26T01:27:30.451Z,13.55
2022-10-26T01:32:52.039Z,13.51
2022-10-26T01:38:24.797Z,13.46
2022-10-26T01:43:30.507Z,13.45
2022-10-26T01:48:33.915Z,13.43
2022-10-26T01:53:35.581Z,13.42
2022-10-26T01:58:54.172Z,13.49
2022-10-26T02:04:01.888Z,13.49
2022-10-26T02:09:33.459Z,13.58
2022-10-26T02:14:50.414Z,13.94
2022-10-26T02:19:59.478Z,14.06
2022-10-26T02:25:07.359Z,14.16
2022-10-26T02:30:10.723Z,14.10
2022-10-26T02:35:15.548Z,14.16
2022-10-26T02:40:20.738Z,14.19
2022-10-26T02:45:27.272Z,14.23
2022-10-26T02:51:07.179Z,14.35
2022-10-26T02:56:17.395Z,14.27
2022-10-26T03:01:19.147Z,14.22
2022-10-26T03:06:22.476Z,14.24
2022-10-26T03:11:24.082Z,14.31
2022-10-26T03:16:25.769Z,14.33
2022-10-26T03:21:27.338Z,14.31
2022-10-26T03:26:28.915Z,14.28
2022-10-26T03:31:30.431Z,14.24
2022-10-26T03:36:32.007Z,14.40
2022-10-26T03:41:33.982Z,14.66
2022-10-26T03:46:35.479Z,14.76
2022-10-26T03:51:37.032Z,14.78
2022-10-26T03:56:38.539Z,14.79
2022-10-26T04:01:40.252Z,14.80
2022-10-26T04:06:41.921Z,14.83
2022-10-26T04:11:43.479Z,14.87
2022-10-26T04:16:44.983Z,14.84
2022-10-26T04:21:46.473Z,14.83
2022-10-26T04:26:47.997Z,14.95
2022-10-26T04:31:49.540Z,14.96
2022-10-26T04:36:51.050Z,14.91
2022-10-26T04:41:54.376Z,14.85
2022-10-26T04:46:55.934Z,14.86
2022-10-26T04:51:57.436Z,14.87
2022-10-26T04:56:59.063Z,14.80
2022-10-26T05:02:00.705Z,14.76
2022-10-26T05:07:02.344Z,14.77
2022-10-26T05:12:04.203Z,14.88
2022-10-26T05:17:05.813Z,14.86
2022-10-26T05:22:07.428Z,14.87
2022-10-26T05:27:09.094Z,14.83
2022-10-26T05:32:10.615Z,14.77
2022-10-26T05:37:12.114Z,14.77
2022-10-26T05:42:13.598Z,14.75
2022-10-26T05:47:15.086Z,14.66
2022-10-26T05:52:16.603Z,14.70
2022-10-26T05:57:18.346Z,14.66
2022-10-26T06:02:45.593Z,14.61
2022-10-26T06:07:47.762Z,14.46
2022-10-26T06:12:50.121Z,14.32
2022-10-26T06:18:00.837Z,14.29
2022-10-26T06:23:21.318Z,14.24
2022-10-26T06:29:03.370Z,14.25
2022-10-26T06:34:05.037Z,14.25
2022-10-26T06:39:10.081Z,14.23
2022-10-26T06:44:19.327Z,14.25
2022-10-26T06:49:32.060Z,14.25
2022-10-26T06:54:51.542Z,14.18
2022-10-26T07:00:02.072Z,14.19
2022-10-26T07:05:03.809Z,14.18
2022-10-26T07:10:05.766Z,14.19
2022-10-26T07:20:19.308Z,14.37
2022-10-26T07:25:20.714Z,14.46
2022-10-26T07:30:22.211Z,14.50
2022-10-26T07:35:23.836Z,14.60
2022-10-26T07:40:25.812Z,14.59
2022-10-26T07:45:28.696Z,14.72
2022-10-26T07:50:30.237Z,14.77
2022-10-26T07:55:31.940Z,14.79
2022-10-26T08:00:33.539Z,14.79
2022-10-26T08:05:35.690Z,15.71
2022-10-26T08:10:37.239Z,16.45
2022-10-26T08:15:39.306Z,16.86
2022-10-26T08:20:41.590Z,16.96
2022-10-26T08:25:43.293Z,17.03
2022-10-26T08:30:44.853Z,17.85
2022-10-26T08:35:46.521Z,17.98
2022-10-26T08:40:48.268Z,18.08
2022-10-26T08:46:02.748Z,17.97
2022-10-26T08:51:14.621Z,17.64
2022-10-26T08:56:23.887Z,17.64
2022-10-26T09:01:25.555Z,17.32
2022-10-26T09:06:35.555Z,17.11
2022-10-26T09:12:09.439Z,17.17
2022-10-26T09:17:48.191Z,17.12
2022-10-26T09:23:11.494Z,17.22
2022-10-26T09:28:18.019Z,18.04
2022-10-26T09:33:24.630Z,19.42
2022-10-26T09:38:30.547Z,20.00
2022-10-26T09:43:42.772Z,19.37
2022-10-26T09:48:48.611Z,19.00
2022-10-26T09:53:50.477Z,19.93
2022-10-26T09:59:00.728Z,20.74
2022-10-26T10:04:14.315Z,20.76
2022-10-26T10:09:21.695Z,21.23
2022-10-26T10:14:39.012Z,21.30
2022-10-26T10:19:41.547Z,20.92
2022-10-26T10:24:54.564Z,21.36
2022-10-26T10:30:01.653Z,20.83
2022-10-26T10:35:29.769Z,21.17
2022-10-26T10:40:31.795Z,20.75
2022-10-26T10:45:35.123Z,21.05
2022-10-26T10:50:37.191Z,21.29
2022-10-26T10:55:39.171Z,21.73
2022-10-26T11:00:43.966Z,22.83
2022-10-26T11:06:17.483Z,22.70
2022-10-26T11:11:25.291Z,24.72
2022-10-26T11:16:31.437Z,24.84
2022-10-26T11:21:36.794Z,24.40
2022-10-26T11:26:46.350Z,24.15
2022-10-26T11:31:57.493Z,24.53
2022-10-26T11:37:37.838Z,24.74
2022-10-26T11:42:54.498Z,26.11
2022-10-26T11:47:55.939Z,27.02
2022-10-26T11:53:00.418Z,26.82
2022-10-26T11:58:03.506Z,25.21
2022-10-26T12:03:17.099Z,25.87
2022-10-26T12:08:27.315Z,26.15
2022-10-26T12:13:32.950Z,25.28
2022-10-26T12:18:54.366Z,25.19
2022-10-26T12:24:02.084Z,26.41
2022-10-26T12:29:03.572Z,25.32
2022-10-26T12:34:13.134Z,24.91
2022-10-26T12:39:37.946Z,23.87
2022-10-26T12:44:45.485Z,24.60
2022-10-26T12:50:08.324Z,25.27
2022-10-26T12:55:12.670Z,24.52
2022-10-26T13:00:22.417Z,25.04
2022-10-26T13:05:45.523Z,26.07
2022-10-26T13:11:24.353Z,26.05
2022-10-26T13:16:28.255Z,25.95
2022-10-26T13:21:30.073Z,25.39
2022-10-26T13:26:52.345Z,24.98
2022-10-26T13:31:55.197Z,25.18
2022-10-26T13:37:03.684Z,25.42
2022-10-26T13:42:07.295Z,26.22
2022-10-26T13:47:19.392Z,26.10
2022-10-26T13:52:40.878Z,25.49
2022-10-26T13:57:45.919Z,25.28
2022-10-26T14:02:48.051Z,25.44
2022-10-26T14:07:56.878Z,25.49
2022-10-26T14:13:00.170Z,25.06
2022-10-26T14:18:04.040Z,25.11
2022-10-26T14:23:05.664Z,25.23
2022-10-26T14:28:28.460Z,25.05
2022-10-26T14:33:30.344Z,25.03
2022-10-26T14:38:39.260Z,24.67
2022-10-26T14:43:40.919Z,24.66
2022-10-26T14:48:53.540Z,24.43
2022-10-26T14:53:58.564Z,24.06
2022-10-26T14:59:29.853Z,24.20
2022-10-26T15:04:31.269Z,24.22
2022-10-26T15:09:55.609Z,23.92
2022-10-26T15:15:10.870Z,23.57
2022-10-26T15:20:17.991Z,23.42
2022-10-26T15:25:23.450Z,22.69
2022-10-26T15:30:27.943Z,22.14
2022-10-26T15:35:31.828Z,21.67
2022-10-26T15:40:33.373Z,21.16
2022-10-26T15:45:38.413Z,21.01
2022-10-26T15:50:41.320Z,21.02
2022-10-26T15:55:42.986Z,20.92
2022-10-26T16:00:45.164Z,21.08
2022-10-26T16:05:46.968Z,21.23
2022-10-26T16:10:48.882Z,20.95
2022-10-26T16:15:50.382Z,20.74
2022-10-26T16:20:51.906Z,20.59
2022-10-26T16:25:53.476Z,20.24
2022-10-26T16:31:10.441Z,19.90
2022-10-26T16:36:13.652Z,19.56
2022-10-26T16:41:16.040Z,19.41
2022-10-26T16:46:20.701Z,19.58
2022-10-26T16:51:24.436Z,19.94
2022-10-26T16:56:28.574Z,20.09
2022-10-26T17:01:30.189Z,20.11
2022-10-26T17:06:31.804Z,20.02
2022-10-26T17:11:33.354Z,19.74
2022-10-26T17:16:34.930Z,19.61
2022-10-26T17:21:36.429Z,19.72
2022-10-26T17:26:37.942Z,19.65
2022-10-26T17:31:39.883Z,19.46
2022-10-26T17:36:41.396Z,19.43
2022-10-26T17:41:42.909Z,19.23
2022-10-26T17:46:44.639Z,18.99
2022-10-26T17:51:46.160Z,18.56
2022-10-26T17:56:47.789Z,18.28
2022-10-26T18:01:49.427Z,18.36
2022-10-26T18:06:51.109Z,18.06
2022-10-26T18:11:55.070Z,17.83
2022-10-26T18:16:57.557Z,17.49
2022-10-26T18:21:59.108Z,16.81
2022-10-26T18:27:00.653Z,16.34
2022-10-26T18:32:02.172Z,16.10
2022-10-26T18:37:03.800Z,15.90
2022-10-26T18:42:05.399Z,15.75
2022-10-26T18:47:06.946Z,15.76
2022-10-26T18:52:09.085Z,15.91
2022-10-26T18:57:10.793Z,16.27
2022-10-26T19:02:14.331Z,16.32
2022-10-26T19:07:15.883Z,16.11
2022-10-26T19:12:17.439Z,15.91
2022-10-26T19:17:18.944Z,15.78
2022-10-26T19:22:20.503Z,15.58
2022-10-26T19:27:21.986Z,15.38
2022-10-26T19:32:26.288Z,15.38
2022-10-26T19:37:28.585Z,15.23
2022-10-26T19:42:30.158Z,15.09
2022-10-26T19:47:31.702Z,15.11
2022-10-26T19:52:33.275Z,14.97
2022-10-26T19:57:34.802Z,14.98
2022-10-26T20:02:36.326Z,14.96
2022-10-26T20:07:37.992Z,15.14
2022-10-26T20:12:39.518Z,15.07
2022-10-26T20:22:43.612Z,15.28
2022-10-26T20:27:48.196Z,15.32
2022-10-26T20:32:49.948Z,15.15
2022-10-26T20:37:52.562Z,15.03
2022-10-26T20:42:55.260Z,14.89
2022-10-26T20:47:58.712Z,14.82
2022-10-26T20:53:26.749Z,14.85
2022-10-26T20:58:48.959Z,14.77
2022-10-26T21:03:51.312Z,14.54
2022-10-26T21:08:55.282Z,14.65
2022-10-26T21:13:57.215Z,14.82
2022-10-26T21:18:58.759Z,14.83
2022-10-26T21:24:00.373Z,14.91
2022-10-26T21:29:01.950Z,14.95
2022-10-26T21:34:03.514Z,14.63
2022-10-26T21:39:05.132Z,14.72
2022-10-26T21:44:09.342Z,14.78
2022-10-26T21:49:17.123Z,14.81
2022-10-26T21:54:18.732Z,14.69
2022-10-26T21:59:20.354Z,14.56
2022-10-26T22:04:21.913Z,14.54
2022-10-26T22:09:23.462Z,14.65
2022-10-26T22:14:24.955Z,14.61
2022-10-26T22:19:26.513Z,14.51
2022-10-26T22:24:28.014Z,14.26
2022-10-26T22:29:29.643Z,14.49
2022-10-26T22:34:31.192Z,14.56
2022-10-26T22:39:32.692Z,14.73
2022-10-26T22:44:34.304Z,14.90
2022-10-26T22:49:35.815Z,14.87
2022-10-26T22:54:37.356Z,14.64
2022-10-26T22:59:38.863Z,14.59
2022-10-26T23:04:40.465Z,14.65
2022-10-26T23:09:42.023Z,14.61
2022-10-26T23:14:43.548Z,14.52
2022-10-26T23:19:45.066Z,14.55
2022-10-26T23:24:46.594Z,14.69
2022-10-26T23:29:48.099Z,14.54
2022-10-26T23:34:49.598Z,14.39
2022-10-26T23:39:51.112Z,14.42
2022-10-26T23:44:52.622Z,14.33
2022-10-26T23:49:54.181Z,14.25
2022-10-26T23:54:55.729Z,14.24
2022-10-26T23:59:57.250Z,14.24
